sensor_id;sensor_type;location;lat;lon;timestamp;pressure;altitude;pressure_sealevel;temperature;humidity
10518;BME280;5307;42.548;22.968;2023-02-02T00:00:47;93934.84;;;1.26;87.06
10518;BME280;5307;42.548;22.968;2023-02-02T00:03:14;93946.41;;;1.19;88.02
10518;BME280;5307;42.548;22.968;2023-02-02T00:05:44;93944.47;;;1.02;88.54
10518;BME280;5307;42.548;22.968;2023-02-02T00:08:12;93942.56;;;1.03;89.41
10518;BME280;5307;42.548;22.968;2023-02-02T00:10:39;93947.94;;;1.21;87.65
10518;BME280;5307;42.548;22.968;2023-02-02T00:13:07;93942.56;;;1.10;87.87
10518;BME280;5307;42.548;22.968;2023-02-02T00:15:34;93946.78;;;0.93;89.43
10518;BME280;5307;42.548;22.968;2023-02-02T00:18:01;93946.00;;;1.07;89.04
10518;BME280;5307;42.548;22.968;2023-02-02T00:20:28;93935.25;;;1.17;89.51
10518;BME280;5307;42.548;22.968;2023-02-02T00:22:55;93934.50;;;1.13;89.50
10518;BME280;5307;42.548;22.968;2023-02-02T00:25:22;93943.69;;;1.12;89.57
10518;BME280;5307;42.548;22.968;2023-02-02T00:27:49;93944.50;;;1.13;88.88
10518;BME280;5307;42.548;22.968;2023-02-02T00:30:17;93932.19;;;0.94;88.33
10518;BME280;5307;42.548;22.968;2023-02-02T00:32:44;93947.53;;;0.83;90.83
10518;BME280;5307;42.548;22.968;2023-02-02T00:35:13;93939.88;;;1.03;90.30
10518;BME280;5307;42.548;22.968;2023-02-02T00:37:40;93951.38;;;1.25;90.48
10518;BME280;5307;42.548;22.968;2023-02-02T00:40:10;93936.78;;;1.11;90.36
10518;BME280;5307;42.548;22.968;2023-02-02T00:42:37;93931.41;;;1.04;91.49
10518;BME280;5307;42.548;22.968;2023-02-02T00:45:04;93944.50;;;1.16;90.19
10518;BME280;5307;42.548;22.968;2023-02-02T00:47:45;93939.09;;;1.16;90.31
10518;BME280;5307;42.548;22.968;2023-02-02T00:50:14;93940.66;;;1.03;89.78
10518;BME280;5307;42.548;22.968;2023-02-02T00:52:42;93921.03;;;0.96;91.12
10518;BME280;5307;42.548;22.968;2023-02-02T00:55:10;93936.03;;;1.07;91.22
10518;BME280;5307;42.548;22.968;2023-02-02T00:57:37;93941.41;;;0.97;92.00
10518;BME280;5307;42.548;22.968;2023-02-02T01:00:08;93936.41;;;0.95;93.06
10518;BME280;5307;42.548;22.968;2023-02-02T01:02:37;93939.09;;;0.95;92.99
10518;BME280;5307;42.548;22.968;2023-02-02T01:05:05;93941.41;;;0.93;92.76
10518;BME280;5307;42.548;22.968;2023-02-02T01:07:32;93938.31;;;0.77;93.60
10518;BME280;5307;42.548;22.968;2023-02-02T01:09:59;93939.84;;;0.81;95.46
10518;BME280;5307;42.548;22.968;2023-02-02T01:12:26;93939.88;;;0.88;95.62
10518;BME280;5307;42.548;22.968;2023-02-02T01:14:52;93929.09;;;0.74;94.00
10518;BME280;5307;42.548;22.968;2023-02-02T01:17:19;93930.66;;;0.72;94.63
10518;BME280;5307;42.548;22.968;2023-02-02T01:19:46;93932.88;;;0.41;96.64
10518;BME280;5307;42.548;22.968;2023-02-02T01:22:14;93925.59;;;0.56;97.70
10518;BME280;5307;42.548;22.968;2023-02-02T01:24:43;93932.91;;;0.66;96.79
10518;BME280;5307;42.548;22.968;2023-02-02T01:27:12;93926.00;;;0.65;96.20
10518;BME280;5307;42.548;22.968;2023-02-02T01:29:39;93922.91;;;0.45;96.35
10518;BME280;5307;42.548;22.968;2023-02-02T01:32:06;93921.34;;;0.30;97.99
10518;BME280;5307;42.548;22.968;2023-02-02T01:34:33;93922.81;;;0.10;99.02
10518;BME280;5307;42.548;22.968;2023-02-02T01:37:00;93935.97;;;0.43;98.13
10518;BME280;5307;42.548;22.968;2023-02-02T01:39:29;93931.78;;;0.64;96.66
10518;BME280;5307;42.548;22.968;2023-02-02T01:41:56;93929.75;;;0.21;97.32
10518;BME280;5307;42.548;22.968;2023-02-02T01:47:42;93919.00;;;0.18;97.77
10518;BME280;5307;42.548;22.968;2023-02-02T01:50:11;93905.97;;;0.23;96.96
10518;BME280;5307;42.548;22.968;2023-02-02T01:52:42;93910.91;;;0.11;97.20
10518;BME280;5307;42.548;22.968;2023-02-02T01:55:13;93917.47;;;0.27;97.46
10518;BME280;5307;42.548;22.968;2023-02-02T01:57:45;93907.88;;;0.23;96.42
10518;BME280;5307;42.548;22.968;2023-02-02T02:00:15;93902.50;;;0.19;96.40
10518;BME280;5307;42.548;22.968;2023-02-02T02:02:45;93902.06;;;-0.01;96.97
10518;BME280;5307;42.548;22.968;2023-02-02T02:05:14;93902.88;;;0.11;97.43
10518;BME280;5307;42.548;22.968;2023-02-02T02:07:44;93900.22;;;0.18;97.24
10518;BME280;5307;42.548;22.968;2023-02-02T02:10:16;93896.69;;;-0.01;97.43
10518;BME280;5307;42.548;22.968;2023-02-02T02:12:43;93898.63;;;0.03;97.54
10518;BME280;5307;42.548;22.968;2023-02-02T02:15:10;93893.19;;;-0.15;97.79
10518;BME280;5307;42.548;22.968;2023-02-02T02:18:02;93916.94;;;-0.21;98.57
10518;BME280;5307;42.548;22.968;2023-02-02T02:20:57;93905.94;;;0.09;97.84
10518;BME280;5307;42.548;22.968;2023-02-02T02:27:50;93913.41;;;-0.39;97.52
10518;BME280;5307;42.548;22.968;2023-02-02T02:33:33;93910.41;;;-0.27;100.00
10518;BME280;5307;42.548;22.968;2023-02-02T02:36:09;93917.25;;;-0.33;100.00
10518;BME280;5307;42.548;22.968;2023-02-02T02:38:46;93915.97;;;-0.61;100.00
10518;BME280;5307;42.548;22.968;2023-02-02T02:41:19;93928.75;;;-0.33;100.00
10518;BME280;5307;42.548;22.968;2023-02-02T02:44:31;93934.19;;;-0.18;100.00
10518;BME280;5307;42.548;22.968;2023-02-02T02:46:55;93916.19;;;-0.21;99.50
10518;BME280;5307;42.548;22.968;2023-02-02T02:49:24;93911.19;;;-0.19;99.03
10518;BME280;5307;42.548;22.968;2023-02-02T02:51:53;93921.47;;;-0.39;98.85
10518;BME280;5307;42.548;22.968;2023-02-02T02:54:22;93910.34;;;-0.41;99.54
10518;BME280;5307;42.548;22.968;2023-02-02T02:57:00;93910.28;;;-0.48;99.30
10518;BME280;5307;42.548;22.968;2023-02-02T02:59:43;93923.78;;;-0.34;99.03
10518;BME280;5307;42.548;22.968;2023-02-02T03:02:25;93929.06;;;-0.45;99.09
10518;BME280;5307;42.548;22.968;2023-02-02T03:05:06;93920.19;;;-0.60;100.00
10518;BME280;5307;42.548;22.968;2023-02-02T03:07:41;93918.47;;;-0.89;100.00
10518;BME280;5307;42.548;22.968;2023-02-02T03:10:11;93913.50;;;-0.87;100.00
10518;BME280;5307;42.548;22.968;2023-02-02T03:12:44;93917.84;;;-0.68;100.00
10518;BME280;5307;42.548;22.968;2023-02-02T03:15:12;93925.03;;;-0.83;100.00
10518;BME280;5307;42.548;22.968;2023-02-02T03:17:39;93913.84;;;-0.92;100.00
10518;BME280;5307;42.548;22.968;2023-02-02T03:20:10;93917.66;;;-0.97;100.00
10518;BME280;5307;42.548;22.968;2023-02-02T03:22:37;93917.69;;;-0.90;100.00
10518;BME280;5307;42.548;22.968;2023-02-02T03:25:04;93915.38;;;-0.95;100.00
10518;BME280;5307;42.548;22.968;2023-02-02T03:27:32;93923.50;;;-1.28;100.00
10518;BME280;5307;42.548;22.968;2023-02-02T03:29:59;93916.41;;;-1.54;100.00
10518;BME280;5307;42.548;22.968;2023-02-02T03:32:26;93898.97;;;-1.37;100.00
10518;BME280;5307;42.548;22.968;2023-02-02T03:34:53;93921.31;;;-1.19;100.00
10518;BME280;5307;42.548;22.968;2023-02-02T03:40:29;93911.38;;;-1.15;100.00
10518;BME280;5307;42.548;22.968;2023-02-02T03:42:56;93906.47;;;-1.06;100.00
10518;BME280;5307;42.548;22.968;2023-02-02T03:45:25;93898.88;;;-1.48;100.00
10518;BME280;5307;42.548;22.968;2023-02-02T03:47:52;93902.00;;;-1.39;100.00
10518;BME280;5307;42.548;22.968;2023-02-02T03:50:19;93923.22;;;-1.20;100.00
10518;BME280;5307;42.548;22.968;2023-02-02T03:52:46;93916.81;;;-1.08;100.00
10518;BME280;5307;42.548;22.968;2023-02-02T03:55:13;93928.22;;;-1.14;100.00
10518;BME280;5307;42.548;22.968;2023-02-02T03:57:41;93914.53;;;-1.06;100.00
10518;BME280;5307;42.548;22.968;2023-02-02T04:00:09;93919.00;;;-1.21;100.00
10518;BME280;5307;42.548;22.968;2023-02-02T04:02:36;93926.66;;;-1.19;100.00
10518;BME280;5307;42.548;22.968;2023-02-02T04:05:04;93929.63;;;-1.31;100.00
10518;BME280;5307;42.548;22.968;2023-02-02T04:07:30;93933.88;;;-1.67;100.00
10518;BME280;5307;42.548;22.968;2023-02-02T04:09:57;93920.44;;;-1.71;100.00
10518;BME280;5307;42.548;22.968;2023-02-02T04:12:24;93923.94;;;-1.26;100.00
10518;BME280;5307;42.548;22.968;2023-02-02T04:14:52;93917.38;;;-1.29;100.00
10518;BME280;5307;42.548;22.968;2023-02-02T04:17:19;93925.78;;;-1.34;100.00
10518;BME280;5307;42.548;22.968;2023-02-02T04:19:46;93928.03;;;-1.39;100.00
10518;BME280;5307;42.548;22.968;2023-02-02T04:22:12;93919.16;;;-1.47;100.00
10518;BME280;5307;42.548;22.968;2023-02-02T04:30:52;93942.25;;;-1.32;100.00
10518;BME280;5307;42.548;22.968;2023-02-02T04:33:19;93932.06;;;-1.56;100.00
10518;BME280;5307;42.548;22.968;2023-02-02T04:35:46;93933.47;;;-1.29;100.00
10518;BME280;5307;42.548;22.968;2023-02-02T04:38:13;93930.47;;;-1.24;100.00
10518;BME280;5307;42.548;22.968;2023-02-02T04:40:41;93927.53;;;-1.04;100.00
10518;BME280;5307;42.548;22.968;2023-02-02T04:43:08;93913.16;;;-1.33;100.00
10518;BME280;5307;42.548;22.968;2023-02-02T04:45:35;93936.34;;;-1.04;100.00
10518;BME280;5307;42.548;22.968;2023-02-02T04:48:04;93937.03;;;-1.14;100.00
10518;BME280;5307;42.548;22.968;2023-02-02T04:50:31;93934.69;;;-1.19;100.00
10518;BME280;5307;42.548;22.968;2023-02-02T04:53:01;93934.41;;;-1.10;100.00
10518;BME280;5307;42.548;22.968;2023-02-02T04:55:28;93941.34;;;-1.02;100.00
10518;BME280;5307;42.548;22.968;2023-02-02T04:57:55;93941.97;;;-1.20;100.00
10518;BME280;5307;42.548;22.968;2023-02-02T05:00:22;93944.94;;;-1.28;100.00
10518;BME280;5307;42.548;22.968;2023-02-02T05:02:49;93943.56;;;-1.11;100.00
10518;BME280;5307;42.548;22.968;2023-02-02T05:05:17;93953.88;;;-1.13;100.00
10518;BME280;5307;42.548;22.968;2023-02-02T05:07:44;93950.47;;;-1.10;100.00
10518;BME280;5307;42.548;22.968;2023-02-02T05:10:11;93946.56;;;-1.20;100.00
10518;BME280;5307;42.548;22.968;2023-02-02T05:12:38;93954.97;;;-1.22;100.00
10518;BME280;5307;42.548;22.968;2023-02-02T05:15:05;93952.25;;;-1.25;100.00
10518;BME280;5307;42.548;22.968;2023-02-02T05:17:32;93953.69;;;-1.38;100.00
10518;BME280;5307;42.548;22.968;2023-02-02T05:19:59;93962.53;;;-1.31;100.00
10518;BME280;5307;42.548;22.968;2023-02-02T05:22:29;93958.28;;;-1.35;100.00
10518;BME280;5307;42.548;22.968;2023-02-02T05:24:55;93965.59;;;-1.29;100.00
10518;BME280;5307;42.548;22.968;2023-02-02T05:27:22;93967.88;;;-1.31;100.00
10518;BME280;5307;42.548;22.968;2023-02-02T05:29:50;93962.47;;;-1.38;100.00
10518;BME280;5307;42.548;22.968;2023-02-02T05:32:17;93968.53;;;-1.44;100.00
10518;BME280;5307;42.548;22.968;2023-02-02T05:34:43;93970.97;;;-1.29;100.00
10518;BME280;5307;42.548;22.968;2023-02-02T05:37:10;93965.66;;;-1.25;100.00
10518;BME280;5307;42.548;22.968;2023-02-02T05:39:38;93963.25;;;-1.37;100.00
10518;BME280;5307;42.548;22.968;2023-02-02T05:42:05;93966.69;;;-1.37;100.00
10518;BME280;5307;42.548;22.968;2023-02-02T05:44:32;93971.34;;;-1.30;100.00
10518;BME280;5307;42.548;22.968;2023-02-02T05:46:59;93957.91;;;-1.34;100.00
10518;BME280;5307;42.548;22.968;2023-02-02T05:49:25;93954.63;;;-1.16;100.00
10518;BME280;5307;42.548;22.968;2023-02-02T05:51:54;93959.59;;;-1.15;100.00
10518;BME280;5307;42.548;22.968;2023-02-02T05:54:22;93953.88;;;-1.13;100.00
10518;BME280;5307;42.548;22.968;2023-02-02T05:56:52;93961.06;;;-1.25;100.00
10518;BME280;5307;42.548;22.968;2023-02-02T05:59:20;93964.06;;;-1.30;100.00
10518;BME280;5307;42.548;22.968;2023-02-02T06:01:48;93963.28;;;-1.34;100.00
10518;BME280;5307;42.548;22.968;2023-02-02T06:04:14;93960.13;;;-1.43;100.00
10518;BME280;5307;42.548;22.968;2023-02-02T06:06:41;93968.09;;;-1.50;100.00
10518;BME280;5307;42.548;22.968;2023-02-02T06:09:08;93975.78;;;-1.45;100.00
10518;BME280;5307;42.548;22.968;2023-02-02T06:11:35;93974.06;;;-1.27;100.00
10518;BME280;5307;42.548;22.968;2023-02-02T06:14:05;93983.97;;;-1.31;100.00
10518;BME280;5307;42.548;22.968;2023-02-02T06:16:32;93979.00;;;-1.29;100.00
10518;BME280;5307;42.548;22.968;2023-02-02T06:18:59;93977.22;;;-1.14;100.00
10518;BME280;5307;42.548;22.968;2023-02-02T06:21:26;93987.22;;;-1.11;100.00
10518;BME280;5307;42.548;22.968;2023-02-02T06:23:55;93987.75;;;-0.91;100.00
10518;BME280;5307;42.548;22.968;2023-02-02T06:26:23;93996.56;;;-0.91;100.00
10518;BME280;5307;42.548;22.968;2023-02-02T06:28:51;93995.75;;;-0.98;100.00
10518;BME280;5307;42.548;22.968;2023-02-02T06:31:20;93984.28;;;-0.95;100.00
10518;BME280;5307;42.548;22.968;2023-02-02T06:33:51;93989.75;;;-0.81;100.00
10518;BME280;5307;42.548;22.968;2023-02-02T06:36:18;93998.34;;;-0.57;100.00
10518;BME280;5307;42.548;22.968;2023-02-02T06:38:47;93995.34;;;-0.49;100.00
10518;BME280;5307;42.548;22.968;2023-02-02T06:41:14;94000.31;;;-0.54;100.00
10518;BME280;5307;42.548;22.968;2023-02-02T06:43:41;93990.81;;;-0.41;100.00
10518;BME280;5307;42.548;22.968;2023-02-02T06:46:08;93999.56;;;-0.51;100.00
10518;BME280;5307;42.548;22.968;2023-02-02T06:48:36;94001.44;;;-0.55;100.00
10518;BME280;5307;42.548;22.968;2023-02-02T06:51:03;93999.22;;;-0.43;100.00
10518;BME280;5307;42.548;22.968;2023-02-02T06:53:31;93995.38;;;-0.45;100.00
10518;BME280;5307;42.548;22.968;2023-02-02T06:55:59;94000.03;;;-0.35;100.00
10518;BME280;5307;42.548;22.968;2023-02-02T06:58:27;94008.53;;;-0.26;100.00
10518;BME280;5307;42.548;22.968;2023-02-02T07:00:54;93999.81;;;-0.09;99.55
10518;BME280;5307;42.548;22.968;2023-02-02T07:03:28;93993.31;;;-0.01;99.59
10518;BME280;5307;42.548;22.968;2023-02-02T07:05:56;94007.09;;;-0.06;98.95
10518;BME280;5307;42.548;22.968;2023-02-02T07:08:23;93992.53;;;-0.05;98.19
10518;BME280;5307;42.548;22.968;2023-02-02T07:10:50;93996.44;;;0.05;98.33
10518;BME280;5307;42.548;22.968;2023-02-02T07:13:17;93996.44;;;0.05;98.97
10518;BME280;5307;42.548;22.968;2023-02-02T07:15:43;94012.63;;;0.26;99.12
10518;BME280;5307;42.548;22.968;2023-02-02T07:18:10;94011.19;;;0.43;98.35
10518;BME280;5307;42.548;22.968;2023-02-02T07:20:37;94008.13;;;0.55;96.95
10518;BME280;5307;42.548;22.968;2023-02-02T07:23:05;94006.66;;;0.72;96.35
10518;BME280;5307;42.548;22.968;2023-02-02T07:25:32;94003.06;;;0.29;94.22
10518;BME280;5307;42.548;22.968;2023-02-02T07:27:59;93997.38;;;0.45;93.74
10518;BME280;5307;42.548;22.968;2023-02-02T07:30:25;94006.25;;;0.59;93.83
10518;BME280;5307;42.548;22.968;2023-02-02T07:32:54;94005.09;;;0.68;95.81
10518;BME280;5307;42.548;22.968;2023-02-02T07:35:22;94012.81;;;0.73;95.89
10518;BME280;5307;42.548;22.968;2023-02-02T07:37:50;94010.50;;;0.71;96.36
10518;BME280;5307;42.548;22.968;2023-02-02T07:40:19;94015.88;;;0.75;95.37
10518;BME280;5307;42.548;22.968;2023-02-02T07:42:47;94011.28;;;0.75;96.65
10518;BME280;5307;42.548;22.968;2023-02-02T07:45:14;94017.44;;;0.90;96.24
10518;BME280;5307;42.548;22.968;2023-02-02T07:47:41;94009.00;;;0.88;95.70
10518;BME280;5307;42.548;22.968;2023-02-02T07:50:09;94009.38;;;0.97;95.64
10518;BME280;5307;42.548;22.968;2023-02-02T07:52:35;94000.94;;;1.09;95.32
10518;BME280;5307;42.548;22.968;2023-02-02T07:55:03;94004.41;;;1.49;92.06
10518;BME280;5307;42.548;22.968;2023-02-02T07:57:31;93990.38;;;2.40;88.18
10518;BME280;5307;42.548;22.968;2023-02-02T07:59:58;93994.69;;;3.00;85.55
10518;BME280;5307;42.548;22.968;2023-02-02T08:02:25;93995.03;;;3.05;80.71
10518;BME280;5307;42.548;22.968;2023-02-02T08:04:51;93993.84;;;3.62;77.94
10518;BME280;5307;42.548;22.968;2023-02-02T08:07:18;93994.38;;;3.42;75.63
10518;BME280;5307;42.548;22.968;2023-02-02T08:09:49;93985.25;;;3.74;77.25
10518;BME280;5307;42.548;22.968;2023-02-02T08:12:16;93984.59;;;4.00;78.30
10518;BME280;5307;42.548;22.968;2023-02-02T08:14:44;93983.16;;;3.47;77.50
10518;BME280;5307;42.548;22.968;2023-02-02T08:17:12;93975.78;;;3.96;76.51
10518;BME280;5307;42.548;22.968;2023-02-02T08:19:38;93973.94;;;3.86;75.33
10518;BME280;5307;42.548;22.968;2023-02-02T08:22:05;93953.94;;;4.48;73.80
10518;BME280;5307;42.548;22.968;2023-02-02T08:24:32;93949.31;;;4.14;72.61
10518;BME280;5307;42.548;22.968;2023-02-02T08:26:59;93938.56;;;4.72;71.33
10518;BME280;5307;42.548;22.968;2023-02-02T08:29:26;93944.03;;;5.22;67.50
10518;BME280;5307;42.548;22.968;2023-02-02T08:31:54;93938.75;;;4.58;67.60
10518;BME280;5307;42.548;22.968;2023-02-02T08:34:21;93926.88;;;5.05;66.75
10518;BME280;5307;42.548;22.968;2023-02-02T08:36:47;93934.63;;;5.77;64.95
10518;BME280;5307;42.548;22.968;2023-02-02T08:39:14;93931.03;;;4.87;64.05
10518;BME280;5307;42.548;22.968;2023-02-02T08:41:41;93930.63;;;5.39;64.31
10518;BME280;5307;42.548;22.968;2023-02-02T08:44:12;93920.69;;;5.75;63.08
10518;BME280;5307;42.548;22.968;2023-02-02T08:46:39;93925.31;;;5.55;61.01
10518;BME280;5307;42.548;22.968;2023-02-02T08:49:09;93916.34;;;5.81;61.96
10518;BME280;5307;42.548;22.968;2023-02-02T08:51:36;93919.56;;;5.53;63.04
10518;BME280;5307;42.548;22.968;2023-02-02T08:54:03;93913.75;;;6.37;62.56
10518;BME280;5307;42.548;22.968;2023-02-02T08:56:30;93919.75;;;6.09;62.53
10518;BME280;5307;42.548;22.968;2023-02-02T08:58:57;93926.19;;;5.95;61.51
10518;BME280;5307;42.548;22.968;2023-02-02T09:01:26;93932.38;;;6.15;62.22
10518;BME280;5307;42.548;22.968;2023-02-02T09:03:53;93929.06;;;5.61;62.38
10518;BME280;5307;42.548;22.968;2023-02-02T09:06:25;93921.28;;;5.86;63.70
10518;BME280;5307;42.548;22.968;2023-02-02T09:08:59;93929.03;;;5.64;63.69
10518;BME280;5307;42.548;22.968;2023-02-02T09:11:26;93924.44;;;6.44;62.60
10518;BME280;5307;42.548;22.968;2023-02-02T09:13:54;93912.56;;;6.38;62.14
10518;BME280;5307;42.548;22.968;2023-02-02T09:16:22;93919.44;;;6.43;61.06
10518;BME280;5307;42.548;22.968;2023-02-02T09:18:49;93917.97;;;6.58;60.80
10518;BME280;5307;42.548;22.968;2023-02-02T09:21:17;93910.13;;;7.32;58.37
10518;BME280;5307;42.548;22.968;2023-02-02T09:23:47;93902.22;;;6.69;59.74
10518;BME280;5307;42.548;22.968;2023-02-02T09:26:16;93905.28;;;6.35;60.65
10518;BME280;5307;42.548;22.968;2023-02-02T09:28:46;93898.41;;;6.67;60.71
10518;BME280;5307;42.548;22.968;2023-02-02T09:31:13;93897.59;;;7.02;59.86
10518;BME280;5307;42.548;22.968;2023-02-02T09:33:40;93897.38;;;7.13;59.22
10518;BME280;5307;42.548;22.968;2023-02-02T09:36:09;93883.84;;;7.58;57.30
10518;BME280;5307;42.548;22.968;2023-02-02T09:38:36;93884.72;;;8.13;55.81
10518;BME280;5307;42.548;22.968;2023-02-02T09:41:24;93873.69;;;7.46;55.83
10518;BME280;5307;42.548;22.968;2023-02-02T09:43:59;93867.72;;;7.51;56.61
10518;BME280;5307;42.548;22.968;2023-02-02T09:46:37;93881.78;;;7.79;56.08
10518;BME280;5307;42.548;22.968;2023-02-02T09:49:12;93873.84;;;7.84;54.42
10518;BME280;5307;42.548;22.968;2023-02-02T09:51:41;93871.59;;;8.24;53.33
10518;BME280;5307;42.548;22.968;2023-02-02T09:54:14;93872.53;;;8.05;52.99
10518;BME280;5307;42.548;22.968;2023-02-02T09:56:47;93867.78;;;8.22;53.34
10518;BME280;5307;42.548;22.968;2023-02-02T09:59:17;93865.06;;;8.63;53.99
10518;BME280;5307;42.548;22.968;2023-02-02T10:01:46;93851.34;;;8.92;52.66
10518;BME280;5307;42.548;22.968;2023-02-02T10:04:20;93854.75;;;8.29;52.42
10518;BME280;5307;42.548;22.968;2023-02-02T10:06:49;93856.66;;;8.58;51.11
10518;BME280;5307;42.548;22.968;2023-02-02T10:09:28;93851.25;;;7.87;52.00
10518;BME280;5307;42.548;22.968;2023-02-02T10:12:02;93849.59;;;8.06;51.30
10518;BME280;5307;42.548;22.968;2023-02-02T10:14:35;93830.31;;;9.06;50.52
10518;BME280;5307;42.548;22.968;2023-02-02T10:17:22;93830.66;;;8.82;50.49
10518;BME280;5307;42.548;22.968;2023-02-02T10:19:54;93826.41;;;9.41;50.37
10518;BME280;5307;42.548;22.968;2023-02-02T10:22:26;93824.22;;;8.51;50.28
10518;BME280;5307;42.548;22.968;2023-02-02T10:24:56;93821.06;;;8.78;52.04
10518;BME280;5307;42.548;22.968;2023-02-02T10:36:41;93825.75;;;8.65;49.35
10518;BME280;5307;42.548;22.968;2023-02-02T10:39:19;93812.47;;;8.79;49.23
10518;BME280;5307;42.548;22.968;2023-02-02T10:41:58;93804.25;;;8.28;50.04
10518;BME280;5307;42.548;22.968;2023-02-02T10:44:35;93817.75;;;8.32;49.53
10518;BME280;5307;42.548;22.968;2023-02-02T10:47:08;93804.88;;;8.07;50.45
10518;BME280;5307;42.548;22.968;2023-02-02T10:49:38;93803.00;;;9.44;48.50
10518;BME280;5307;42.548;22.968;2023-02-02T10:52:14;93802.22;;;8.58;48.46
10518;BME280;5307;42.548;22.968;2023-02-02T10:54:48;93793.84;;;8.65;49.78
10518;BME280;5307;42.548;22.968;2023-02-02T10:57:20;93787.66;;;8.52;49.53
10518;BME280;5307;42.548;22.968;2023-02-02T10:59:58;93774.78;;;8.52;49.21
10518;BME280;5307;42.548;22.968;2023-02-02T11:02:30;93779.47;;;9.37;50.26
10518;BME280;5307;42.548;22.968;2023-02-02T11:04:57;93767.94;;;8.48;49.50
10518;BME280;5307;42.548;22.968;2023-02-02T11:07:42;93758.97;;;8.85;50.23
10518;BME280;5307;42.548;22.968;2023-02-02T11:10:09;93760.75;;;8.79;49.82
10518;BME280;5307;42.548;22.968;2023-02-02T11:12:40;93752.88;;;10.38;48.12
10518;BME280;5307;42.548;22.968;2023-02-02T11:15:22;93755.66;;;9.72;48.63
10518;BME280;5307;42.548;22.968;2023-02-02T11:17:50;93742.00;;;8.81;48.94
10518;BME280;5307;42.548;22.968;2023-02-02T11:20:22;93746.31;;;9.39;48.84
10518;BME280;5307;42.548;22.968;2023-02-02T11:23:00;93747.75;;;8.83;48.34
10518;BME280;5307;42.548;22.968;2023-02-02T11:25:30;93752.94;;;9.16;48.08
10518;BME280;5307;42.548;22.968;2023-02-02T11:28:00;93739.53;;;8.74;48.13
10518;BME280;5307;42.548;22.968;2023-02-02T11:30:30;93738.75;;;9.21;48.31
10518;BME280;5307;42.548;22.968;2023-02-02T11:32:58;93733.53;;;9.48;47.03
10518;BME280;5307;42.548;22.968;2023-02-02T11:35:26;93719.56;;;9.68;49.05
10518;BME280;5307;42.548;22.968;2023-02-02T11:38:08;93709.72;;;9.27;49.30
10518;BME280;5307;42.548;22.968;2023-02-02T11:40:36;93703.97;;;9.47;48.15
10518;BME280;5307;42.548;22.968;2023-02-02T11:43:06;93704.41;;;9.67;47.84
10518;BME280;5307;42.548;22.968;2023-02-02T11:45:43;93704.84;;;9.88;47.80
10518;BME280;5307;42.548;22.968;2023-02-02T11:48:16;93696.69;;;9.66;47.01
10518;BME280;5307;42.548;22.968;2023-02-02T11:50:46;93684.13;;;9.25;47.58
10518;BME280;5307;42.548;22.968;2023-02-02T11:53:34;93689.38;;;9.19;48.83
10518;BME280;5307;42.548;22.968;2023-02-02T11:56:04;93670.69;;;9.08;47.12
10518;BME280;5307;42.548;22.968;2023-02-02T11:58:43;93670.44;;;9.37;45.03
10518;BME280;5307;42.548;22.968;2023-02-02T12:01:23;93665.75;;;9.60;45.66
10518;BME280;5307;42.548;22.968;2023-02-02T12:03:52;93662.72;;;9.58;47.72
10518;BME280;5307;42.548;22.968;2023-02-02T12:06:23;93668.34;;;9.63;51.45
10518;BME280;5307;42.548;22.968;2023-02-02T12:08:54;93676.31;;;9.14;44.80
10518;BME280;5307;42.548;22.968;2023-02-02T12:11:37;93664.03;;;9.09;41.37
10518;BME280;5307;42.548;22.968;2023-02-02T12:14:20;93660.94;;;9.20;41.68
10518;BME280;5307;42.548;22.968;2023-02-02T12:16:58;93662.16;;;9.19;41.98
10518;BME280;5307;42.548;22.968;2023-02-02T12:19:40;93656.56;;;9.44;42.18
10518;BME280;5307;42.548;22.968;2023-02-02T12:22:23;93671.22;;;9.16;42.94
10518;BME280;5307;42.548;22.968;2023-02-02T12:24:56;93658.56;;;8.87;44.45
10518;BME280;5307;42.548;22.968;2023-02-02T12:27:32;93664.56;;;9.17;43.69
10518;BME280;5307;42.548;22.968;2023-02-02T12:30:22;93660.25;;;9.50;40.87
10518;BME280;5307;42.548;22.968;2023-02-02T12:33:17;93655.91;;;8.97;44.21
10518;BME280;5307;42.548;22.968;2023-02-02T12:36:04;93654.22;;;8.77;42.39
10518;BME280;5307;42.548;22.968;2023-02-02T12:38:49;93648.84;;;9.21;43.52
10518;BME280;5307;42.548;22.968;2023-02-02T12:41:40;93643.88;;;8.72;44.20
10518;BME280;5307;42.548;22.968;2023-02-02T12:44:12;93645.84;;;9.06;44.63
10518;BME280;5307;42.548;22.968;2023-02-02T12:46:48;93632.13;;;8.75;43.08
10518;BME280;5307;42.548;22.968;2023-02-02T12:49:38;93638.25;;;9.23;44.99
10518;BME280;5307;42.548;22.968;2023-02-02T12:52:18;93644.22;;;9.31;42.64
10518;BME280;5307;42.548;22.968;2023-02-02T12:55:04;93637.28;;;9.39;41.46
10518;BME280;5307;42.548;22.968;2023-02-02T12:57:46;93641.97;;;9.38;42.73
10518;BME280;5307;42.548;22.968;2023-02-02T13:00:26;93641.28;;;9.03;43.95
10518;BME280;5307;42.548;22.968;2023-02-02T13:03:05;93630.09;;;9.01;43.37
10518;BME280;5307;42.548;22.968;2023-02-02T13:05:44;93640.31;;;8.75;43.82
10518;BME280;5307;42.548;22.968;2023-02-02T13:08:20;93647.31;;;8.51;43.46
10518;BME280;5307;42.548;22.968;2023-02-02T13:10:52;93646.75;;;8.56;44.03
10518;BME280;5307;42.548;22.968;2023-02-02T13:13:25;93649.84;;;8.32;44.62
10518;BME280;5307;42.548;22.968;2023-02-02T13:15:58;93659.97;;;8.19;44.81
10518;BME280;5307;42.548;22.968;2023-02-02T13:18:30;93658.78;;;7.95;44.50
10518;BME280;5307;42.548;22.968;2023-02-02T13:21:01;93657.69;;;7.92;46.56
10518;BME280;5307;42.548;22.968;2023-02-02T13:23:32;93676.47;;;7.87;46.16
10518;BME280;5307;42.548;22.968;2023-02-02T13:26:01;93688.31;;;7.26;49.90
10518;BME280;5307;42.548;22.968;2023-02-02T13:28:37;93695.53;;;6.87;51.54
10518;BME280;5307;42.548;22.968;2023-02-02T13:31:11;93718.13;;;6.68;53.82
10518;BME280;5307;42.548;22.968;2023-02-02T13:33:42;93738.81;;;6.78;55.49
10518;BME280;5307;42.548;22.968;2023-02-02T13:36:15;93730.19;;;6.50;59.08
10518;BME280;5307;42.548;22.968;2023-02-02T13:38:43;93730.00;;;6.25;62.82
10518;BME280;5307;42.548;22.968;2023-02-02T13:41:11;93746.41;;;5.62;67.92
10518;BME280;5307;42.548;22.968;2023-02-02T13:43:47;93748.63;;;5.67;71.21
10518;BME280;5307;42.548;22.968;2023-02-02T13:46:28;93741.81;;;5.59;72.73
10518;BME280;5307;42.548;22.968;2023-02-02T13:49:00;93735.91;;;5.44;73.03
10518;BME280;5307;42.548;22.968;2023-02-02T13:51:48;93726.63;;;5.65;72.55